Rachel Carson — WDE6481 — position and weather

sailwx.info

Track history (hours):
 
Tides and Currents Weather Stations Pressure Air Temp Water Temp Dewpoint Dewpoint Depression Visibility Wind Speed Wind Dir Waves Ship Positions

Oceanographic research ship Rachel Carson (USA)

Owner: University of Maryland Center for Environmental Science Research Fleet Operations, Solomons, MD. More information available from US FCC via Universal Licensing System and Coast Guard Vessel Documentation Center.

Last reported at 2019-Aug-22 19:11 UTC. Time now 2019-Sep-21 21:29 UTC.
Position N 39°11' W 076°27'.
Warning: this ship's position is 30 days out of date.

Length 24 m; draft 1.5 m.

Type: Other ship. MMSI: 367380790.

Date/timePositionNaut miles runAvg speedWind from/ knotsBaromVisibWave heightAir tempDewpointWater temp
2019-Aug-22 19:11N 39°11' W 076°27'0 1.5
2019-Aug-22 19:00N 39°11' W 076°27'4 0.7
2019-Aug-22 13:03N 39°09' W 076°22'0 0.0
2019-Aug-22 13:00N 39°09' W 076°22'2 0.1
2019-Aug-21 21:27N 39°07' W 076°23'13 4.3
2019-Aug-21 18:28N 38°54' W 076°26'50 2.4
2019-Aug-20 21:26N 38°05' W 076°18'612.3
2019-Aug-20 20:57N 38°04' W 076°25'6 1.4
2019-Aug-20 16:39N 38°08' W 076°31'1 4.0
2019-Aug-20 16:28N 38°08' W 076°30'510.7
2019-Aug-20 16:00N 38°03' W 076°28'611.9
2019-Aug-20 15:30N 38°00' W 076°22'3 6.4
2019-Aug-20 14:59N 37°58' W 076°19'8 4.4
2019-Aug-20 13:06N 38°03' W 076°11'5 7.7
2019-Aug-20 12:24N 38°08' W 076°10'3 7.1
2019-Aug-20 11:57N 38°11' W 076°11'1318.3
2019-Aug-20 11:14N 38°19' W 076°25'  
2019-Aug-15 12:17N 38°53' W 076°23'619.7
2019-Aug-15 11:59N 38°59' W 076°23'2 0.4
2019-Aug-15 08:00N 39°01' W 076°24'0 0.0
2019-Aug-15 04:45N 39°01' W 076°24'0 0.0
2019-Aug-15 04:21N 39°01' W 076°24'0 0.0
2019-Aug-15 03:51N 39°01' W 076°24'0 0.0
2019-Aug-14 09:41N 39°01' W 076°24'0 0.0
2019-Aug-14 06:23N 39°01' W 076°24'5 0.5
2019-Aug-13 19:30N 38°56' W 076°26'  
Track history (hours):
 
Tides and Currents Weather Stations Pressure Air Temp Water Temp Dewpoint Dewpoint Depression Visibility Wind Speed Wind Dir Waves Ship Positions

Oceanographic research ship Rachel Carson (USA)

Owner: University of Maryland Center for Environmental Science Research Fleet Operations, Solomons, MD. More information available from US FCC via Universal Licensing System and Coast Guard Vessel Documentation Center.

Last reported at 2019-Aug-22 19:11 UTC. Time now 2019-Sep-21 21:29 UTC.
Position N 39°11' W 076°27'.
Warning: this ship's position is 30 days out of date.

Length 24 m; draft 1.5 m.

Type: Other ship. MMSI: 367380790.

Date/timePositionNaut miles runAvg speedWind from/ knotsBaromVisibWave heightAir tempDewpointWater temp
2019-Aug-22 19:11N 39°11' W 076°27'0 1.5
2019-Aug-22 19:00N 39°11' W 076°27'4 0.7
2019-Aug-22 13:03N 39°09' W 076°22'0 0.0
2019-Aug-22 13:00N 39°09' W 076°22'2 0.1
2019-Aug-21 21:27N 39°07' W 076°23'13 4.3
2019-Aug-21 18:28N 38°54' W 076°26'50 2.4
2019-Aug-20 21:26N 38°05' W 076°18'612.3
2019-Aug-20 20:57N 38°04' W 076°25'6 1.4
2019-Aug-20 16:39N 38°08' W 076°31'1 4.0
2019-Aug-20 16:28N 38°08' W 076°30'510.7
2019-Aug-20 16:00N 38°03' W 076°28'611.9
2019-Aug-20 15:30N 38°00' W 076°22'3 6.4
2019-Aug-20 14:59N 37°58' W 076°19'8 4.4
2019-Aug-20 13:06N 38°03' W 076°11'5 7.7
2019-Aug-20 12:24N 38°08' W 076°10'3 7.1
2019-Aug-20 11:57N 38°11' W 076°11'1318.3
2019-Aug-20 11:14N 38°19' W 076°25'  
2019-Aug-15 12:17N 38°53' W 076°23'619.7
2019-Aug-15 11:59N 38°59' W 076°23'2 0.4
2019-Aug-15 08:00N 39°01' W 076°24'0 0.0
2019-Aug-15 04:45N 39°01' W 076°24'0 0.0
2019-Aug-15 04:21N 39°01' W 076°24'0 0.0
2019-Aug-15 03:51N 39°01' W 076°24'0 0.0
2019-Aug-14 09:41N 39°01' W 076°24'0 0.0
2019-Aug-14 06:23N 39°01' W 076°24'5 0.5
2019-Aug-13 19:30N 38°56' W 076°26'  

Dump ship's entire track history